sensor_id;sensor_type;location;lat;lon;timestamp;P1;durP1;ratioP1;P2;durP2;ratioP2
36593;SDS011;22603;47.900;8.146;2022-08-02T00:00:06;3.90;;;1.60;;
36593;SDS011;22603;47.900;8.146;2022-08-02T00:02:55;4.13;;;1.60;;
36593;SDS011;22603;47.900;8.146;2022-08-02T00:05:44;4.77;;;1.77;;
36593;SDS011;22603;47.900;8.146;2022-08-02T00:08:37;3.73;;;1.70;;
36593;SDS011;22603;47.900;8.146;2022-08-02T00:11:24;8.00;;;1.53;;
36593;SDS011;22603;47.900;8.146;2022-08-02T00:14:12;3.73;;;1.50;;
36593;SDS011;22603;47.900;8.146;2022-08-02T00:16:59;6.67;;;2.00;;
36593;SDS011;22603;47.900;8.146;2022-08-02T00:19:46;4.43;;;1.90;;
36593;SDS011;22603;47.900;8.146;2022-08-02T00:22:34;4.60;;;1.63;;
36593;SDS011;22603;47.900;8.146;2022-08-02T00:25:21;5.67;;;2.10;;
36593;SDS011;22603;47.900;8.146;2022-08-02T00:28:09;5.47;;;1.70;;
36593;SDS011;22603;47.900;8.146;2022-08-02T00:30:56;4.47;;;1.60;;
36593;SDS011;22603;47.900;8.146;2022-08-02T00:33:43;4.77;;;1.80;;
36593;SDS011;22603;47.900;8.146;2022-08-02T00:36:50;3.70;;;1.60;;
36593;SDS011;22603;47.900;8.146;2022-08-02T00:39:40;3.93;;;1.70;;
36593;SDS011;22603;47.900;8.146;2022-08-02T00:42:28;4.40;;;1.50;;
36593;SDS011;22603;47.900;8.146;2022-08-02T00:45:15;5.97;;;1.87;;
36593;SDS011;22603;47.900;8.146;2022-08-02T00:48:01;4.90;;;1.67;;
36593;SDS011;22603;47.900;8.146;2022-08-02T00:50:50;6.07;;;1.90;;
36593;SDS011;22603;47.900;8.146;2022-08-02T00:53:37;4.67;;;1.80;;
36593;SDS011;22603;47.900;8.146;2022-08-02T00:56:27;4.13;;;1.67;;
36593;SDS011;22603;47.900;8.146;2022-08-02T00:59:14;3.67;;;1.60;;
36593;SDS011;22603;47.900;8.146;2022-08-02T01:02:01;4.17;;;1.70;;
36593;SDS011;22603;47.900;8.146;2022-08-02T01:04:48;3.47;;;1.60;;
36593;SDS011;22603;47.900;8.146;2022-08-02T01:07:35;5.57;;;1.77;;
36593;SDS011;22603;47.900;8.146;2022-08-02T01:10:22;3.40;;;1.60;;
36593;SDS011;22603;47.900;8.146;2022-08-02T01:13:11;6.73;;;1.90;;
36593;SDS011;22603;47.900;8.146;2022-08-02T01:15:59;4.20;;;1.67;;
36593;SDS011;22603;47.900;8.146;2022-08-02T01:18:53;4.83;;;1.87;;
36593;SDS011;22603;47.900;8.146;2022-08-02T01:21:51;3.80;;;1.90;;
36593;SDS011;22603;47.900;8.146;2022-08-02T01:24:51;3.47;;;1.60;;
36593;SDS011;22603;47.900;8.146;2022-08-02T01:27:50;3.60;;;1.57;;
36593;SDS011;22603;47.900;8.146;2022-08-02T01:31:01;3.80;;;1.57;;
36593;SDS011;22603;47.900;8.146;2022-08-02T01:33:57;4.27;;;1.40;;
36593;SDS011;22603;47.900;8.146;2022-08-02T01:36:49;4.93;;;1.67;;
36593;SDS011;22603;47.900;8.146;2022-08-02T01:39:41;4.13;;;1.70;;
36593;SDS011;22603;47.900;8.146;2022-08-02T01:42:31;4.33;;;1.57;;
36593;SDS011;22603;47.900;8.146;2022-08-02T01:45:20;3.47;;;1.70;;
36593;SDS011;22603;47.900;8.146;2022-08-02T01:48:09;3.47;;;1.80;;
36593;SDS011;22603;47.900;8.146;2022-08-02T01:50:58;4.23;;;1.93;;
36593;SDS011;22603;47.900;8.146;2022-08-02T01:53:47;5.07;;;1.53;;
36593;SDS011;22603;47.900;8.146;2022-08-02T01:56:36;4.00;;;1.60;;
36593;SDS011;22603;47.900;8.146;2022-08-02T01:59:24;4.80;;;1.80;;
36593;SDS011;22603;47.900;8.146;2022-08-02T02:02:14;3.97;;;1.67;;
36593;SDS011;22603;47.900;8.146;2022-08-02T02:05:04;3.37;;;1.53;;
36593;SDS011;22603;47.900;8.146;2022-08-02T02:07:52;5.40;;;1.40;;
36593;SDS011;22603;47.900;8.146;2022-08-02T02:10:42;3.30;;;1.50;;
36593;SDS011;22603;47.900;8.146;2022-08-02T02:13:31;2.97;;;1.50;;
36593;SDS011;22603;47.900;8.146;2022-08-02T02:16:19;5.27;;;1.70;;
36593;SDS011;22603;47.900;8.146;2022-08-02T02:19:12;4.53;;;1.80;;
36593;SDS011;22603;47.900;8.146;2022-08-02T02:22:05;4.13;;;1.77;;
36593;SDS011;22603;47.900;8.146;2022-08-02T02:24:55;3.97;;;1.80;;
36593;SDS011;22603;47.900;8.146;2022-08-02T02:27:44;3.33;;;1.60;;
36593;SDS011;22603;47.900;8.146;2022-08-02T02:30:35;4.97;;;1.53;;
36593;SDS011;22603;47.900;8.146;2022-08-02T02:33:25;4.47;;;1.70;;
36593;SDS011;22603;47.900;8.146;2022-08-02T02:36:15;3.97;;;1.60;;
36593;SDS011;22603;47.900;8.146;2022-08-02T02:39:06;5.60;;;1.90;;
36593;SDS011;22603;47.900;8.146;2022-08-02T02:41:59;5.73;;;2.00;;
36593;SDS011;22603;47.900;8.146;2022-08-02T02:44:49;4.80;;;1.67;;
36593;SDS011;22603;47.900;8.146;2022-08-02T02:47:37;4.30;;;1.60;;
36593;SDS011;22603;47.900;8.146;2022-08-02T02:50:26;6.40;;;1.90;;
36593;SDS011;22603;47.900;8.146;2022-08-02T02:53:17;4.80;;;1.93;;
36593;SDS011;22603;47.900;8.146;2022-08-02T02:56:04;5.13;;;1.80;;
36593;SDS011;22603;47.900;8.146;2022-08-02T02:58:52;4.50;;;1.73;;
36593;SDS011;22603;47.900;8.146;2022-08-02T03:01:39;3.70;;;1.57;;
36593;SDS011;22603;47.900;8.146;2022-08-02T03:04:41;5.53;;;1.90;;
36593;SDS011;22603;47.900;8.146;2022-08-02T03:07:41;4.93;;;1.87;;
36593;SDS011;22603;47.900;8.146;2022-08-02T03:10:30;4.07;;;1.70;;
36593;SDS011;22603;47.900;8.146;2022-08-02T03:13:18;5.43;;;1.87;;
36593;SDS011;22603;47.900;8.146;2022-08-02T03:16:06;5.23;;;1.77;;
36593;SDS011;22603;47.900;8.146;2022-08-02T03:18:53;4.80;;;1.93;;
36593;SDS011;22603;47.900;8.146;2022-08-02T03:21:41;4.33;;;1.70;;
36593;SDS011;22603;47.900;8.146;2022-08-02T03:24:28;4.07;;;1.57;;
36593;SDS011;22603;47.900;8.146;2022-08-02T03:27:17;4.43;;;1.60;;
36593;SDS011;22603;47.900;8.146;2022-08-02T03:30:05;3.30;;;1.70;;
36593;SDS011;22603;47.900;8.146;2022-08-02T03:36:45;3.63;;;1.70;;
36593;SDS011;22603;47.900;8.146;2022-08-02T03:39:35;4.23;;;1.43;;
36593;SDS011;22603;47.900;8.146;2022-08-02T03:42:38;4.90;;;1.70;;
36593;SDS011;22603;47.900;8.146;2022-08-02T03:45:26;4.50;;;1.73;;
36593;SDS011;22603;47.900;8.146;2022-08-02T03:48:15;4.67;;;2.17;;
36593;SDS011;22603;47.900;8.146;2022-08-02T03:51:19;4.43;;;1.80;;
36593;SDS011;22603;47.900;8.146;2022-08-02T03:54:06;5.17;;;1.87;;
36593;SDS011;22603;47.900;8.146;2022-08-02T03:56:53;5.03;;;1.90;;
36593;SDS011;22603;47.900;8.146;2022-08-02T03:59:42;5.37;;;1.97;;
36593;SDS011;22603;47.900;8.146;2022-08-02T04:02:30;4.67;;;1.80;;
36593;SDS011;22603;47.900;8.146;2022-08-02T04:05:17;5.53;;;2.00;;
36593;SDS011;22603;47.900;8.146;2022-08-02T04:08:05;4.10;;;1.57;;
36593;SDS011;22603;47.900;8.146;2022-08-02T04:11:12;4.23;;;1.67;;
36593;SDS011;22603;47.900;8.146;2022-08-02T04:14:18;5.37;;;1.87;;
36593;SDS011;22603;47.900;8.146;2022-08-02T04:17:07;4.37;;;1.80;;
36593;SDS011;22603;47.900;8.146;2022-08-02T04:19:57;7.23;;;2.17;;
36593;SDS011;22603;47.900;8.146;2022-08-02T04:22:50;7.13;;;2.27;;
36593;SDS011;22603;47.900;8.146;2022-08-02T04:25:41;5.03;;;1.73;;
36593;SDS011;22603;47.900;8.146;2022-08-02T04:28:30;4.80;;;1.90;;
36593;SDS011;22603;47.900;8.146;2022-08-02T04:31:18;4.30;;;1.90;;
36593;SDS011;22603;47.900;8.146;2022-08-02T04:34:07;4.33;;;1.80;;
36593;SDS011;22603;47.900;8.146;2022-08-02T04:36:59;3.90;;;1.90;;
36593;SDS011;22603;47.900;8.146;2022-08-02T04:39:47;4.90;;;1.97;;
36593;SDS011;22603;47.900;8.146;2022-08-02T04:42:34;5.23;;;2.23;;
36593;SDS011;22603;47.900;8.146;2022-08-02T04:45:21;5.13;;;2.17;;
36593;SDS011;22603;47.900;8.146;2022-08-02T04:48:10;6.37;;;2.00;;
36593;SDS011;22603;47.900;8.146;2022-08-02T04:50:58;6.17;;;2.13;;
36593;SDS011;22603;47.900;8.146;2022-08-02T04:53:46;4.90;;;1.80;;
36593;SDS011;22603;47.900;8.146;2022-08-02T04:56:33;4.57;;;1.90;;
36593;SDS011;22603;47.900;8.146;2022-08-02T04:59:20;5.10;;;2.03;;
36593;SDS011;22603;47.900;8.146;2022-08-02T05:02:07;4.67;;;1.90;;
36593;SDS011;22603;47.900;8.146;2022-08-02T05:04:55;6.33;;;2.10;;
36593;SDS011;22603;47.900;8.146;2022-08-02T05:07:43;4.43;;;2.07;;
36593;SDS011;22603;47.900;8.146;2022-08-02T05:10:30;5.60;;;2.10;;
36593;SDS011;22603;47.900;8.146;2022-08-02T05:13:17;4.80;;;2.10;;
36593;SDS011;22603;47.900;8.146;2022-08-02T05:16:04;4.97;;;1.97;;
36593;SDS011;22603;47.900;8.146;2022-08-02T05:18:51;6.03;;;2.17;;
36593;SDS011;22603;47.900;8.146;2022-08-02T05:21:38;3.97;;;1.80;;
36593;SDS011;22603;47.900;8.146;2022-08-02T05:24:27;5.03;;;2.03;;
36593;SDS011;22603;47.900;8.146;2022-08-02T05:27:14;5.30;;;2.30;;
36593;SDS011;22603;47.900;8.146;2022-08-02T05:30:06;5.13;;;2.13;;
36593;SDS011;22603;47.900;8.146;2022-08-02T05:32:54;6.00;;;2.20;;
36593;SDS011;22603;47.900;8.146;2022-08-02T05:35:41;6.60;;;2.30;;
36593;SDS011;22603;47.900;8.146;2022-08-02T05:38:28;6.13;;;2.20;;
36593;SDS011;22603;47.900;8.146;2022-08-02T05:41:23;4.07;;;1.90;;
36593;SDS011;22603;47.900;8.146;2022-08-02T05:44:10;5.63;;;2.00;;
36593;SDS011;22603;47.900;8.146;2022-08-02T05:46:57;4.60;;;1.70;;
36593;SDS011;22603;47.900;8.146;2022-08-02T05:49:44;5.13;;;2.30;;
36593;SDS011;22603;47.900;8.146;2022-08-02T05:52:33;7.37;;;2.00;;
36593;SDS011;22603;47.900;8.146;2022-08-02T05:55:32;5.60;;;2.20;;
36593;SDS011;22603;47.900;8.146;2022-08-02T05:58:23;5.83;;;2.40;;
36593;SDS011;22603;47.900;8.146;2022-08-02T06:01:16;7.60;;;2.03;;
36593;SDS011;22603;47.900;8.146;2022-08-02T06:04:09;5.87;;;2.23;;
36593;SDS011;22603;47.900;8.146;2022-08-02T06:07:00;4.43;;;1.87;;
36593;SDS011;22603;47.900;8.146;2022-08-02T06:09:50;6.07;;;2.37;;
36593;SDS011;22603;47.900;8.146;2022-08-02T06:12:40;5.37;;;2.00;;
36593;SDS011;22603;47.900;8.146;2022-08-02T06:15:33;5.47;;;2.30;;
36593;SDS011;22603;47.900;8.146;2022-08-02T06:18:37;5.23;;;2.13;;
36593;SDS011;22603;47.900;8.146;2022-08-02T06:21:26;7.00;;;2.17;;
36593;SDS011;22603;47.900;8.146;2022-08-02T06:24:33;4.73;;;2.10;;
36593;SDS011;22603;47.900;8.146;2022-08-02T06:27:21;5.63;;;2.23;;
36593;SDS011;22603;47.900;8.146;2022-08-02T06:30:12;5.20;;;1.90;;
36593;SDS011;22603;47.900;8.146;2022-08-02T06:33:00;5.18;;;2.20;;
36593;SDS011;22603;47.900;8.146;2022-08-02T06:35:49;5.47;;;2.10;;
36593;SDS011;22603;47.900;8.146;2022-08-02T06:38:51;4.40;;;2.20;;
36593;SDS011;22603;47.900;8.146;2022-08-02T06:41:43;4.05;;;1.92;;
36593;SDS011;22603;47.900;8.146;2022-08-02T06:44:36;4.32;;;1.90;;
36593;SDS011;22603;47.900;8.146;2022-08-02T06:47:32;3.90;;;1.88;;
36593;SDS011;22603;47.900;8.146;2022-08-02T06:50:21;4.97;;;2.15;;
36593;SDS011;22603;47.900;8.146;2022-08-02T06:53:09;6.82;;;2.28;;
36593;SDS011;22603;47.900;8.146;2022-08-02T06:55:56;4.40;;;1.98;;
36593;SDS011;22603;47.900;8.146;2022-08-02T06:58:44;8.57;;;1.95;;
36593;SDS011;22603;47.900;8.146;2022-08-02T07:01:31;7.32;;;2.00;;
36593;SDS011;22603;47.900;8.146;2022-08-02T07:04:23;5.28;;;2.10;;
36593;SDS011;22603;47.900;8.146;2022-08-02T07:07:12;6.03;;;2.20;;
36593;SDS011;22603;47.900;8.146;2022-08-02T07:09:59;6.47;;;2.20;;
36593;SDS011;22603;47.900;8.146;2022-08-02T07:12:46;7.40;;;2.38;;
36593;SDS011;22603;47.900;8.146;2022-08-02T07:15:33;6.13;;;2.05;;
36593;SDS011;22603;47.900;8.146;2022-08-02T07:18:20;7.85;;;1.98;;
36593;SDS011;22603;47.900;8.146;2022-08-02T07:21:08;7.15;;;2.15;;
36593;SDS011;22603;47.900;8.146;2022-08-02T07:23:57;5.47;;;2.20;;
36593;SDS011;22603;47.900;8.146;2022-08-02T07:26:44;6.90;;;1.95;;
36593;SDS011;22603;47.900;8.146;2022-08-02T07:29:51;8.30;;;2.20;;
36593;SDS011;22603;47.900;8.146;2022-08-02T07:32:39;5.07;;;1.80;;
36593;SDS011;22603;47.900;8.146;2022-08-02T07:35:27;6.47;;;2.00;;
36593;SDS011;22603;47.900;8.146;2022-08-02T07:38:17;5.47;;;1.98;;
36593;SDS011;22603;47.900;8.146;2022-08-02T07:41:10;5.45;;;1.80;;
36593;SDS011;22603;47.900;8.146;2022-08-02T07:43:58;7.95;;;1.98;;
36593;SDS011;22603;47.900;8.146;2022-08-02T07:46:45;3.88;;;1.63;;
36593;SDS011;22603;47.900;8.146;2022-08-02T07:49:32;4.68;;;1.80;;
36593;SDS011;22603;47.900;8.146;2022-08-02T07:52:19;4.70;;;1.83;;
36593;SDS011;22603;47.900;8.146;2022-08-02T07:55:07;5.18;;;1.92;;
36593;SDS011;22603;47.900;8.146;2022-08-02T07:57:56;5.55;;;2.03;;
36593;SDS011;22603;47.900;8.146;2022-08-02T08:00:44;4.30;;;2.00;;
36593;SDS011;22603;47.900;8.146;2022-08-02T08:03:32;5.07;;;1.98;;
36593;SDS011;22603;47.900;8.146;2022-08-02T08:06:19;4.90;;;2.20;;
36593;SDS011;22603;47.900;8.146;2022-08-02T08:09:18;4.30;;;2.03;;
36593;SDS011;22603;47.900;8.146;2022-08-02T08:12:06;7.80;;;1.88;;
36593;SDS011;22603;47.900;8.146;2022-08-02T08:14:55;4.63;;;1.90;;
36593;SDS011;22603;47.900;8.146;2022-08-02T08:17:42;4.50;;;1.83;;
36593;SDS011;22603;47.900;8.146;2022-08-02T08:20:29;6.20;;;1.80;;
36593;SDS011;22603;47.900;8.146;2022-08-02T08:23:17;4.95;;;2.08;;
36593;SDS011;22603;47.900;8.146;2022-08-02T08:26:04;6.10;;;2.03;;
36593;SDS011;22603;47.900;8.146;2022-08-02T08:28:51;4.28;;;2.00;;
36593;SDS011;22603;47.900;8.146;2022-08-02T08:31:39;3.95;;;1.92;;
36593;SDS011;22603;47.900;8.146;2022-08-02T08:34:26;7.43;;;2.03;;
36593;SDS011;22603;47.900;8.146;2022-08-02T08:37:15;5.22;;;1.88;;
36593;SDS011;22603;47.900;8.146;2022-08-02T08:40:03;2.95;;;1.58;;
36593;SDS011;22603;47.900;8.146;2022-08-02T08:42:51;4.57;;;1.92;;
36593;SDS011;22603;47.900;8.146;2022-08-02T08:45:39;5.20;;;2.13;;
36593;SDS011;22603;47.900;8.146;2022-08-02T08:48:29;6.07;;;2.05;;
36593;SDS011;22603;47.900;8.146;2022-08-02T08:51:22;3.67;;;1.73;;
36593;SDS011;22603;47.900;8.146;2022-08-02T08:54:16;3.70;;;1.70;;
36593;SDS011;22603;47.900;8.146;2022-08-02T08:57:04;4.70;;;1.80;;
36593;SDS011;22603;47.900;8.146;2022-08-02T08:59:52;3.85;;;1.88;;
36593;SDS011;22603;47.900;8.146;2022-08-02T09:02:40;4.53;;;2.00;;
36593;SDS011;22603;47.900;8.146;2022-08-02T09:05:31;4.22;;;1.85;;
36593;SDS011;22603;47.900;8.146;2022-08-02T09:08:20;4.00;;;1.80;;
36593;SDS011;22603;47.900;8.146;2022-08-02T09:11:13;4.78;;;2.00;;
36593;SDS011;22603;47.900;8.146;2022-08-02T09:14:02;3.88;;;1.85;;
36593;SDS011;22603;47.900;8.146;2022-08-02T09:16:49;5.38;;;1.90;;
36593;SDS011;22603;47.900;8.146;2022-08-02T09:19:36;5.80;;;1.90;;
36593;SDS011;22603;47.900;8.146;2022-08-02T09:22:31;6.10;;;2.08;;
36593;SDS011;22603;47.900;8.146;2022-08-02T09:25:19;3.67;;;1.83;;
36593;SDS011;22603;47.900;8.146;2022-08-02T09:28:06;6.40;;;1.58;;
36593;SDS011;22603;47.900;8.146;2022-08-02T09:30:55;3.42;;;1.60;;
36593;SDS011;22603;47.900;8.146;2022-08-02T09:33:44;4.90;;;1.80;;
36593;SDS011;22603;47.900;8.146;2022-08-02T09:36:37;3.30;;;1.73;;
36593;SDS011;22603;47.900;8.146;2022-08-02T09:39:27;5.00;;;1.50;;
36593;SDS011;22603;47.900;8.146;2022-08-02T09:42:32;4.03;;;1.83;;
36593;SDS011;22603;47.900;8.146;2022-08-02T09:45:19;3.80;;;1.80;;
36593;SDS011;22603;47.900;8.146;2022-08-02T09:48:06;5.85;;;2.10;;
36593;SDS011;22603;47.900;8.146;2022-08-02T09:50:54;3.58;;;1.77;;
36593;SDS011;22603;47.900;8.146;2022-08-02T09:53:42;3.25;;;1.60;;
36593;SDS011;22603;47.900;8.146;2022-08-02T09:56:39;2.85;;;1.65;;
36593;SDS011;22603;47.900;8.146;2022-08-02T09:59:28;4.40;;;2.00;;
36593;SDS011;22603;47.900;8.146;2022-08-02T10:02:16;3.15;;;1.60;;
36593;SDS011;22603;47.900;8.146;2022-08-02T10:05:07;4.40;;;1.52;;
36593;SDS011;22603;47.900;8.146;2022-08-02T10:07:58;5.63;;;1.60;;
36593;SDS011;22603;47.900;8.146;2022-08-02T10:10:45;3.58;;;1.80;;
36593;SDS011;22603;47.900;8.146;2022-08-02T10:13:34;3.08;;;1.65;;
36593;SDS011;22603;47.900;8.146;2022-08-02T10:16:21;4.00;;;1.70;;
36593;SDS011;22603;47.900;8.146;2022-08-02T10:19:10;3.17;;;1.70;;
36593;SDS011;22603;47.900;8.146;2022-08-02T10:21:57;3.10;;;1.50;;
36593;SDS011;22603;47.900;8.146;2022-08-02T10:24:49;4.00;;;1.60;;
36593;SDS011;22603;47.900;8.146;2022-08-02T10:27:36;3.85;;;1.88;;
36593;SDS011;22603;47.900;8.146;2022-08-02T10:30:45;4.65;;;1.90;;
36593;SDS011;22603;47.900;8.146;2022-08-02T10:33:34;4.18;;;1.42;;
36593;SDS011;22603;47.900;8.146;2022-08-02T10:36:23;4.95;;;1.67;;
36593;SDS011;22603;47.900;8.146;2022-08-02T10:39:12;5.47;;;1.58;;
36593;SDS011;22603;47.900;8.146;2022-08-02T10:41:59;5.10;;;1.83;;
36593;SDS011;22603;47.900;8.146;2022-08-02T10:44:46;5.20;;;1.90;;
36593;SDS011;22603;47.900;8.146;2022-08-02T10:47:35;4.53;;;2.20;;
36593;SDS011;22603;47.900;8.146;2022-08-02T10:50:33;7.18;;;1.73;;
36593;SDS011;22603;47.900;8.146;2022-08-02T10:53:37;4.22;;;1.85;;
36593;SDS011;22603;47.900;8.146;2022-08-02T10:56:35;4.28;;;1.73;;
36593;SDS011;22603;47.900;8.146;2022-08-02T10:59:31;5.93;;;1.60;;
36593;SDS011;22603;47.900;8.146;2022-08-02T11:02:35;5.25;;;1.90;;
36593;SDS011;22603;47.900;8.146;2022-08-02T11:05:26;3.63;;;1.77;;
36593;SDS011;22603;47.900;8.146;2022-08-02T11:08:27;3.63;;;1.73;;
36593;SDS011;22603;47.900;8.146;2022-08-02T11:11:15;4.25;;;1.95;;
36593;SDS011;22603;47.900;8.146;2022-08-02T11:14:24;5.28;;;1.70;;
36593;SDS011;22603;47.900;8.146;2022-08-02T11:17:12;4.30;;;1.67;;
36593;SDS011;22603;47.900;8.146;2022-08-02T11:20:15;4.40;;;2.00;;
36593;SDS011;22603;47.900;8.146;2022-08-02T11:26:42;3.00;;;1.50;;
36593;SDS011;22603;47.900;8.146;2022-08-02T11:29:32;3.15;;;1.58;;
36593;SDS011;22603;47.900;8.146;2022-08-02T11:32:24;3.90;;;1.70;;
36593;SDS011;22603;47.900;8.146;2022-08-02T11:35:17;4.88;;;1.77;;
36593;SDS011;22603;47.900;8.146;2022-08-02T11:38:15;4.43;;;1.67;;
36593;SDS011;22603;47.900;8.146;2022-08-02T11:41:05;3.30;;;1.77;;
36593;SDS011;22603;47.900;8.146;2022-08-02T11:43:55;4.25;;;1.90;;
36593;SDS011;22603;47.900;8.146;2022-08-02T11:46:43;2.90;;;1.63;;
36593;SDS011;22603;47.900;8.146;2022-08-02T11:49:30;3.63;;;1.83;;
36593;SDS011;22603;47.900;8.146;2022-08-02T11:52:20;4.82;;;1.83;;
36593;SDS011;22603;47.900;8.146;2022-08-02T11:55:25;4.03;;;1.77;;
36593;SDS011;22603;47.900;8.146;2022-08-02T11:58:12;3.63;;;1.75;;
36593;SDS011;22603;47.900;8.146;2022-08-02T12:00:59;3.92;;;1.85;;
36593;SDS011;22603;47.900;8.146;2022-08-02T12:03:47;5.20;;;1.85;;
36593;SDS011;22603;47.900;8.146;2022-08-02T12:06:36;4.65;;;1.80;;
36593;SDS011;22603;47.900;8.146;2022-08-02T12:09:25;6.20;;;1.67;;
36593;SDS011;22603;47.900;8.146;2022-08-02T12:12:13;2.58;;;1.60;;
36593;SDS011;22603;47.900;8.146;2022-08-02T12:15:00;3.05;;;1.80;;
36593;SDS011;22603;47.900;8.146;2022-08-02T12:17:48;3.70;;;1.80;;
36593;SDS011;22603;47.900;8.146;2022-08-02T12:20:52;6.40;;;2.00;;
36593;SDS011;22603;47.900;8.146;2022-08-02T12:23:41;3.65;;;1.90;;
36593;SDS011;22603;47.900;8.146;2022-08-02T12:26:46;3.80;;;1.60;;
36593;SDS011;22603;47.900;8.146;2022-08-02T12:29:34;6.78;;;1.70;;
36593;SDS011;22603;47.900;8.146;2022-08-02T12:32:42;6.85;;;1.70;;
36593;SDS011;22603;47.900;8.146;2022-08-02T12:35:30;2.90;;;1.52;;
36593;SDS011;22603;47.900;8.146;2022-08-02T12:38:17;4.43;;;1.85;;
36593;SDS011;22603;47.900;8.146;2022-08-02T12:41:11;4.38;;;1.65;;
36593;SDS011;22603;47.900;8.146;2022-08-02T12:44:17;3.55;;;1.75;;
36593;SDS011;22603;47.900;8.146;2022-08-02T12:47:05;4.93;;;2.00;;
36593;SDS011;22603;47.900;8.146;2022-08-02T12:50:10;4.32;;;1.60;;
36593;SDS011;22603;47.900;8.146;2022-08-02T12:53:02;3.95;;;1.55;;
36593;SDS011;22603;47.900;8.146;2022-08-02T12:55:51;2.85;;;1.70;;
36593;SDS011;22603;47.900;8.146;2022-08-02T12:58:47;4.00;;;1.90;;
36593;SDS011;22603;47.900;8.146;2022-08-02T13:01:37;10.15;;;1.80;;
36593;SDS011;22603;47.900;8.146;2022-08-02T13:04:24;4.38;;;1.80;;
36593;SDS011;22603;47.900;8.146;2022-08-02T13:07:11;3.08;;;1.52;;
36593;SDS011;22603;47.900;8.146;2022-08-02T13:09:58;7.60;;;1.90;;
36593;SDS011;22603;47.900;8.146;2022-08-02T13:12:47;4.10;;;1.95;;
36593;SDS011;22603;47.900;8.146;2022-08-02T13:15:35;5.88;;;2.00;;
36593;SDS011;22603;47.900;8.146;2022-08-02T13:18:37;3.30;;;1.40;;
36593;SDS011;22603;47.900;8.146;2022-08-02T13:21:24;5.05;;;1.88;;
36593;SDS011;22603;47.900;8.146;2022-08-02T13:24:32;7.22;;;2.08;;
36593;SDS011;22603;47.900;8.146;2022-08-02T13:27:39;3.45;;;1.75;;
36593;SDS011;22603;47.900;8.146;2022-08-02T13:30:26;3.88;;;1.65;;
36593;SDS011;22603;47.900;8.146;2022-08-02T13:33:13;3.40;;;1.80;;
36593;SDS011;22603;47.900;8.146;2022-08-02T13:36:03;4.88;;;1.60;;
36593;SDS011;22603;47.900;8.146;2022-08-02T13:38:53;5.20;;;1.77;;
36593;SDS011;22603;47.900;8.146;2022-08-02T13:41:40;3.83;;;1.70;;
36593;SDS011;22603;47.900;8.146;2022-08-02T13:44:27;2.95;;;1.63;;
36593;SDS011;22603;47.900;8.146;2022-08-02T13:47:14;4.68;;;1.70;;
36593;SDS011;22603;47.900;8.146;2022-08-02T13:50:21;3.72;;;1.60;;
36593;SDS011;22603;47.900;8.146;2022-08-02T13:53:10;4.57;;;1.65;;
36593;SDS011;22603;47.900;8.146;2022-08-02T13:55:57;6.22;;;1.85;;
36593;SDS011;22603;47.900;8.146;2022-08-02T13:58:45;5.57;;;1.70;;
36593;SDS011;22603;47.900;8.146;2022-08-02T14:01:32;4.00;;;1.70;;
36593;SDS011;22603;47.900;8.146;2022-08-02T14:04:20;4.32;;;1.58;;
36593;SDS011;22603;47.900;8.146;2022-08-02T14:07:07;5.82;;;2.10;;
36593;SDS011;22603;47.900;8.146;2022-08-02T14:09:56;2.60;;;1.40;;
36593;SDS011;22603;47.900;8.146;2022-08-02T14:12:43;3.30;;;1.60;;
36593;SDS011;22603;47.900;8.146;2022-08-02T14:15:40;4.70;;;2.00;;
36593;SDS011;22603;47.900;8.146;2022-08-02T14:18:27;5.05;;;1.98;;
36593;SDS011;22603;47.900;8.146;2022-08-02T14:21:15;3.72;;;1.70;;
36593;SDS011;22603;47.900;8.146;2022-08-02T14:24:02;3.10;;;1.40;;
36593;SDS011;22603;47.900;8.146;2022-08-02T14:26:51;4.05;;;1.40;;
36593;SDS011;22603;47.900;8.146;2022-08-02T14:29:39;3.17;;;1.50;;
36593;SDS011;22603;47.900;8.146;2022-08-02T14:32:26;3.05;;;1.30;;
36593;SDS011;22603;47.900;8.146;2022-08-02T14:35:17;3.50;;;1.55;;
36593;SDS011;22603;47.900;8.146;2022-08-02T14:38:04;4.18;;;1.27;;
36593;SDS011;22603;47.900;8.146;2022-08-02T14:40:51;7.18;;;1.65;;
36593;SDS011;22603;47.900;8.146;2022-08-02T14:43:39;5.43;;;1.70;;
36593;SDS011;22603;47.900;8.146;2022-08-02T14:46:43;3.55;;;1.38;;
36593;SDS011;22603;47.900;8.146;2022-08-02T14:49:31;3.03;;;1.40;;
36593;SDS011;22603;47.900;8.146;2022-08-02T14:52:23;4.22;;;1.52;;
36593;SDS011;22603;47.900;8.146;2022-08-02T14:55:11;3.63;;;1.30;;
36593;SDS011;22603;47.900;8.146;2022-08-02T14:58:01;3.20;;;1.38;;
36593;SDS011;22603;47.900;8.146;2022-08-02T15:00:49;2.50;;;1.25;;
36593;SDS011;22603;47.900;8.146;2022-08-02T15:03:37;2.33;;;1.20;;
36593;SDS011;22603;47.900;8.146;2022-08-02T15:06:28;2.28;;;1.30;;
36593;SDS011;22603;47.900;8.146;2022-08-02T15:09:16;2.85;;;1.40;;
36593;SDS011;22603;47.900;8.146;2022-08-02T15:12:04;5.50;;;1.40;;
36593;SDS011;22603;47.900;8.146;2022-08-02T15:14:52;2.15;;;1.25;;
36593;SDS011;22603;47.900;8.146;2022-08-02T15:17:40;2.72;;;1.33;;
36593;SDS011;22603;47.900;8.146;2022-08-02T15:20:28;2.10;;;1.20;;
36593;SDS011;22603;47.900;8.146;2022-08-02T15:23:18;3.05;;;1.40;;
36593;SDS011;22603;47.900;8.146;2022-08-02T15:26:05;5.93;;;1.60;;
36593;SDS011;22603;47.900;8.146;2022-08-02T15:28:52;3.22;;;1.48;;
36593;SDS011;22603;47.900;8.146;2022-08-02T15:31:40;2.63;;;1.23;;
36593;SDS011;22603;47.900;8.146;2022-08-02T15:34:29;4.68;;;1.55;;
36593;SDS011;22603;47.900;8.146;2022-08-02T15:37:16;3.35;;;1.40;;
36593;SDS011;22603;47.900;8.146;2022-08-02T15:40:04;3.95;;;1.48;;
36593;SDS011;22603;47.900;8.146;2022-08-02T15:42:52;6.40;;;1.40;;
36593;SDS011;22603;47.900;8.146;2022-08-02T15:45:39;3.25;;;1.40;;
36593;SDS011;22603;47.900;8.146;2022-08-02T15:48:26;3.38;;;1.48;;
36593;SDS011;22603;47.900;8.146;2022-08-02T15:51:14;2.90;;;1.23;;
36593;SDS011;22603;47.900;8.146;2022-08-02T15:54:01;2.70;;;1.40;;
36593;SDS011;22603;47.900;8.146;2022-08-02T15:56:48;2.42;;;1.25;;
36593;SDS011;22603;47.900;8.146;2022-08-02T15:59:36;3.97;;;1.25;;
36593;SDS011;22603;47.900;8.146;2022-08-02T16:02:23;4.57;;;1.40;;
36593;SDS011;22603;47.900;8.146;2022-08-02T16:05:10;2.08;;;1.25;;
36593;SDS011;22603;47.900;8.146;2022-08-02T16:08:00;3.58;;;1.40;;
36593;SDS011;22603;47.900;8.146;2022-08-02T16:10:47;2.22;;;1.20;;
36593;SDS011;22603;47.900;8.146;2022-08-02T16:13:34;2.00;;;1.13;;
36593;SDS011;22603;47.900;8.146;2022-08-02T16:16:38;2.70;;;1.30;;
36593;SDS011;22603;47.900;8.146;2022-08-02T16:19:25;1.83;;;1.20;;
36593;SDS011;22603;47.900;8.146;2022-08-02T16:22:33;2.38;;;1.15;;
36593;SDS011;22603;47.900;8.146;2022-08-02T16:25:21;2.70;;;1.20;;
36593;SDS011;22603;47.900;8.146;2022-08-02T16:28:09;2.33;;;0.95;;
36593;SDS011;22603;47.900;8.146;2022-08-02T16:30:56;3.15;;;1.10;;
36593;SDS011;22603;47.900;8.146;2022-08-02T16:33:55;2.88;;;1.15;;
36593;SDS011;22603;47.900;8.146;2022-08-02T16:36:42;3.20;;;1.25;;
36593;SDS011;22603;47.900;8.146;2022-08-02T16:39:30;1.58;;;1.05;;
36593;SDS011;22603;47.900;8.146;2022-08-02T16:42:18;2.58;;;1.23;;
36593;SDS011;22603;47.900;8.146;2022-08-02T16:45:10;2.28;;;1.13;;
36593;SDS011;22603;47.900;8.146;2022-08-02T16:47:58;2.80;;;1.05;;
36593;SDS011;22603;47.900;8.146;2022-08-02T16:50:49;4.63;;;1.00;;
36593;SDS011;22603;47.900;8.146;2022-08-02T16:53:36;2.47;;;1.08;;
36593;SDS011;22603;47.900;8.146;2022-08-02T16:56:44;2.28;;;0.95;;
36593;SDS011;22603;47.900;8.146;2022-08-02T16:59:34;2.03;;;1.20;;
36593;SDS011;22603;47.900;8.146;2022-08-02T17:02:28;2.90;;;1.30;;
36593;SDS011;22603;47.900;8.146;2022-08-02T17:05:15;2.95;;;0.93;;
36593;SDS011;22603;47.900;8.146;2022-08-02T17:08:05;2.22;;;1.00;;
36593;SDS011;22603;47.900;8.146;2022-08-02T17:11:01;2.33;;;1.20;;
36593;SDS011;22603;47.900;8.146;2022-08-02T17:13:48;2.35;;;1.20;;